Time;durP1;ratioP1;P1;durP2;ratioP2;P2;SDS_P1;SDS_P2;PMS_P1;PMS_P2;Temp;Humidity;BMP_temperature;BMP_pressure;BME280_temperature;BME280_humidity;BME280_pressure;Samples;Min_cycle;Max_cycle;Signal;HPM_P1;HPM_P2
2021/04/07 00:00:42;;;;;;;16.58;7.32;;;;;;;6.24;53.94;92417.03;5070192;28;20107;-72
2021/04/07 00:03:09;;;;;;;12.23;7.07;;;;;;;6.21;54.56;92423.75;5072049;28;20487;-72
2021/04/07 00:05:39;;;;;;;14.30;6.78;;;;;;;6.17;54.07;92403.56;5089968;28;20116;-72
2021/04/07 00:08:06;;;;;;;13.13;6.93;;;;;;;6.13;53.82;92424.56;5060839;28;20035;-72
2021/04/07 00:10:40;;;;;;;13.48;6.80;;;;;;;6.10;54.03;92419.91;5090147;28;20110;-72
2021/04/07 00:13:06;;;;;;;14.52;6.68;;;;;;;6.02;54.07;92428.66;5090124;28;20032;-72
2021/04/07 00:15:32;;;;;;;14.45;7.18;;;;;;;5.74;53.55;92420.34;5089952;28;20024;-71
2021/04/07 00:17:58;;;;;;;10.80;6.45;;;;;;;5.53;54.42;92428.97;5089787;28;20121;-72
2021/04/07 00:20:26;;;;;;;12.35;6.68;;;;;;;5.36;54.33;92421.13;5072165;28;20493;-71
2021/04/07 00:22:52;;;;;;;12.95;7.00;;;;;;;5.24;54.52;92411.19;5052295;28;20025;-72
2021/04/07 00:25:19;;;;;;;12.25;6.45;;;;;;;5.08;55.39;92407.50;5090154;28;20479;-72
2021/04/07 00:27:53;;;;;;;14.50;7.22;;;;;;;4.83;55.43;92428.34;5090035;28;20027;-72
2021/04/07 00:30:19;;;;;;;11.85;6.70;;;;;;;4.78;56.33;92420.56;5089974;28;20024;-72
2021/04/07 00:32:44;;;;;;;13.40;6.68;;;;;;;4.63;56.59;92430.50;5071584;28;20081;-71
2021/04/07 00:35:10;;;;;;;12.95;7.03;;;;;;;4.53;56.73;92422.91;5071279;28;20024;-71
2021/04/07 00:37:39;;;;;;;17.50;7.68;;;;;;;4.45;57.43;92381.47;5071461;28;20467;-71
2021/04/07 00:40:06;;;;;;;14.75;7.35;;;;;;;4.52;57.76;92373.06;5071059;28;20048;-71
2021/04/07 00:42:32;;;;;;;12.05;7.70;;;;;;;4.61;58.20;92358.03;5089740;28;20024;-71
2021/04/07 00:44:58;;;;;;;15.63;7.53;;;;;;;4.67;57.68;92375.25;5071452;28;20028;-71
2021/04/07 00:47:24;;;;;;;11.52;6.82;;;;;;;4.72;57.31;92390.94;5062966;28;20537;-72
2021/04/07 00:49:49;;;;;;;13.23;7.15;;;;;;;4.81;57.68;92381.13;5067234;28;20111;-71
2021/04/07 00:52:15;;;;;;;15.45;7.53;;;;;;;4.88;57.41;92380.66;5068219;28;20017;-72
2021/04/07 00:54:40;;;;;;;17.20;7.47;;;;;;;4.89;56.95;92379.59;5067191;28;20024;-71
2021/04/07 00:57:06;;;;;;;13.73;7.75;;;;;;;4.86;57.94;92374.91;5051778;28;20024;-71
2021/04/07 00:59:32;;;;;;;22.45;7.80;;;;;;;4.86;58.11;92360.94;5089236;28;20088;-71
2021/04/07 01:01:58;;;;;;;16.63;7.65;;;;;;;4.88;57.92;92341.06;5089348;28;20364;-72
2021/04/07 01:04:24;;;;;;;15.90;7.40;;;;;;;4.97;58.28;92355.03;5089203;28;20026;-71
2021/04/07 01:06:51;;;;;;;15.65;7.43;;;;;;;5.01;57.82;92334.81;5105040;28;20034;-71
2021/04/07 01:09:17;;;;;;;15.25;7.57;;;;;;;5.00;58.25;92343.81;5064468;28;20056;-72
2021/04/07 01:11:42;;;;;;;13.23;7.13;;;;;;;5.00;57.66;92322.69;5086413;28;20125;-71
2021/04/07 01:14:08;;;;;;;14.80;7.07;;;;;;;5.14;57.39;92329.66;5075730;28;20028;-72
2021/04/07 01:16:34;;;;;;;12.18;7.40;;;;;;;5.13;56.20;92342.09;5075156;28;20035;-72
2021/04/07 01:19:00;;;;;;;16.60;8.00;;;;;;;5.18;56.92;92335.84;5093615;28;20040;-72
2021/04/07 01:21:25;;;;;;;13.85;8.10;;;;;;;5.26;55.74;92345.63;5109076;28;20023;-72
2021/04/07 01:23:51;;;;;;;18.98;7.55;;;;;;;5.17;56.80;92372.06;5093508;28;20471;-72
2021/04/07 01:26:17;;;;;;;15.27;8.15;;;;;;;5.02;57.26;92357.47;5075192;28;20031;-72
2021/04/07 01:28:43;;;;;;;13.20;8.02;;;;;;;4.95;57.78;92378.31;5093115;28;20035;-72
2021/04/07 01:31:09;;;;;;;15.13;7.82;;;;;;;4.87;58.25;92376.47;5093644;28;20028;-72
2021/04/07 01:33:35;;;;;;;13.60;7.47;;;;;;;4.81;58.28;92383.78;5074992;28;20031;-72
2021/04/07 01:36:01;;;;;;;12.35;7.40;;;;;;;4.75;58.27;92379.75;5075211;28;20016;-72
2021/04/07 01:38:26;;;;;;;14.82;6.75;;;;;;;4.73;58.30;92381.94;5075139;28;20020;-72
2021/04/07 01:40:54;;;;;;;15.90;8.18;;;;;;;4.69;58.41;92398.69;5093027;28;20036;-73
2021/04/07 01:43:21;;;;;;;13.85;7.97;;;;;;;4.69;58.36;92385.50;5108959;28;20028;-72
2021/04/07 01:45:47;;;;;;;21.83;8.32;;;;;;;4.67;58.97;92382.41;5093151;28;20083;-72
2021/04/07 01:48:14;;;;;;;16.40;8.70;;;;;;;4.46;58.98;92385.66;5074905;28;20066;-72
2021/04/07 01:50:41;;;;;;;18.17;8.43;;;;;;;4.28;58.72;92397.31;5074533;28;20439;-72
2021/04/07 01:53:08;;;;;;;16.02;8.95;;;;;;;4.08;60.03;92412.63;5092867;28;20081;-71
2021/04/07 01:55:33;;;;;;;15.23;9.38;;;;;;;3.66;60.38;92414.81;5092848;28;20031;-71
2021/04/07 01:57:59;;;;;;;19.10;8.85;;;;;;;3.56;61.50;92408.00;5092795;28;20475;-71
2021/04/07 02:00:24;;;;;;;22.38;8.90;;;;;;;3.38;62.37;92388.69;5092960;28;20406;-71
2021/04/07 02:02:50;;;;;;;17.35;8.82;;;;;;;3.33;62.63;92412.53;5071751;28;20028;-72
2021/04/07 02:05:16;;;;;;;16.95;8.30;;;;;;;3.38;63.21;92393.97;5074639;28;20062;-72
2021/04/07 02:07:41;;;;;;;21.75;10.75;;;;;;;3.45;62.85;92398.03;5074291;28;20035;-72
2021/04/07 02:10:09;;;;;;;20.70;9.55;;;;;;;3.45;63.01;92404.06;5064685;28;20612;-72
2021/04/07 02:12:34;;;;;;;18.80;9.90;;;;;;;3.44;63.77;92423.59;5092550;28;20497;-71
2021/04/07 02:15:05;;;;;;;17.10;8.88;;;;;;;3.35;64.19;92423.53;5065782;28;20029;-71
2021/04/07 02:17:30;;;;;;;16.55;10.27;;;;;;;3.14;65.09;92423.28;5074416;28;20032;-71
2021/04/07 02:19:56;;;;;;;19.77;10.07;;;;;;;2.91;66.01;92429.63;5092223;28;20028;-71
2021/04/07 02:22:21;;;;;;;17.27;10.35;;;;;;;2.58;67.09;92429.88;5074445;28;20044;-71
2021/04/07 02:24:49;;;;;;;22.35;11.13;;;;;;;2.43;68.15;92419.69;5058925;28;20032;-71
2021/04/07 02:27:14;;;;;;;18.25;10.02;;;;;;;2.29;68.24;92435.50;5092479;28;20024;-72
2021/04/07 02:29:41;;;;;;;19.10;10.60;;;;;;;2.30;68.74;92450.19;5057783;28;20039;-71
2021/04/07 02:32:07;;;;;;;22.08;10.68;;;;;;;2.12;69.28;92439.53;5074008;28;20020;-71
2021/04/07 02:34:34;;;;;;;18.10;9.80;;;;;;;1.95;69.38;92458.50;5092344;28;20073;-71
2021/04/07 02:37:00;;;;;;;19.45;10.25;;;;;;;1.93;69.62;92442.25;5092379;28;20028;-71
2021/04/07 02:39:26;;;;;;;13.40;8.80;;;;;;;1.95;69.44;92444.59;5073922;28;20027;-71
2021/04/07 02:41:52;;;;;;;14.90;8.70;;;;;;;1.88;69.43;92438.97;5091947;28;20051;-71
2021/04/07 02:44:18;;;;;;;12.05;7.22;;;;;;;1.82;68.99;92435.66;5092082;28;20071;-71
2021/04/07 02:46:43;;;;;;;11.82;7.30;;;;;;;1.69;69.89;92436.44;5073757;28;20051;-71
2021/04/07 02:49:09;;;;;;;13.57;8.05;;;;;;;1.54;70.13;92448.78;5073329;28;20030;-72
2021/04/07 02:51:34;;;;;;;12.13;6.80;;;;;;;1.50;70.51;92452.31;5061268;28;20028;-72
2021/04/07 02:54:00;;;;;;;10.43;6.00;;;;;;;1.36;70.35;92478.53;5058036;28;20471;-72
2021/04/07 02:56:29;;;;;;;9.93;5.03;;;;;;;1.24;70.55;92476.38;5091860;28;20032;-72
2021/04/07 02:58:54;;;;;;;8.23;4.65;;;;;;;1.13;70.55;92475.75;5092131;28;20498;-71
2021/04/07 03:01:20;;;;;;;6.18;4.40;;;;;;;1.05;71.22;92502.66;5058142;28;20024;-71
2021/04/07 03:03:45;;;;;;;8.18;3.92;;;;;;;0.98;71.01;92507.50;5073509;28;20407;-72
2021/04/07 03:06:10;;;;;;;5.55;3.28;;;;;;;0.88;71.19;92500.56;5073144;28;20067;-72
2021/04/07 03:08:36;;;;;;;4.68;3.00;;;;;;;0.69;71.43;92507.66;5091523;28;20533;-72
2021/04/07 03:11:01;;;;;;;10.30;3.40;;;;;;;0.54;72.29;92516.53;5073382;28;20032;-72
2021/04/07 03:13:27;;;;;;;5.10;3.17;;;;;;;0.36;72.21;92518.84;5073095;28;20081;-72
2021/04/07 03:15:52;;;;;;;6.80;2.95;;;;;;;0.34;72.75;92525.44;5073237;28;20403;-71
2021/04/07 03:18:18;;;;;;;9.57;3.05;;;;;;;0.32;73.04;92538.03;5091153;28;20106;-72
2021/04/07 03:20:43;;;;;;;5.30;2.78;;;;;;;0.31;72.86;92528.63;5091604;28;20445;-71
2021/04/07 03:23:08;;;;;;;5.03;2.95;;;;;;;0.27;72.81;92527.63;5095283;28;20024;-72
2021/04/07 03:25:34;;;;;;;4.13;2.45;;;;;;;0.31;72.71;92529.41;5091244;28;20506;-72
2021/04/07 03:27:59;;;;;;;3.60;2.25;;;;;;;0.24;72.37;92525.56;5091312;28;20028;-72
2021/04/07 03:30:25;;;;;;;6.15;2.83;;;;;;;0.27;72.74;92535.50;5091114;28;20024;-71
2021/04/07 03:32:50;;;;;;;3.92;2.47;;;;;;;0.25;72.50;92532.38;5106783;28;20027;-71
2021/04/07 03:35:16;;;;;;;4.63;2.35;;;;;;;0.28;72.29;92532.59;5071930;28;20027;-71
2021/04/07 03:37:41;;;;;;;2.90;1.85;;;;;;;0.15;72.20;92534.06;5072619;28;20039;-71
2021/04/07 03:40:07;;;;;;;2.67;1.70;;;;;;;0.05;71.66;92544.66;5090909;28;20119;-71
2021/04/07 03:42:33;;;;;;;6.10;2.65;;;;;;;-0.04;72.31;92536.63;5072527;28;20038;-71
2021/04/07 03:44:58;;;;;;;4.03;2.22;;;;;;;-0.07;72.84;92559.97;5091104;28;20024;-72
2021/04/07 03:47:25;;;;;;;3.67;2.25;;;;;;;-0.11;72.95;92559.75;5072669;28;20024;-72
2021/04/07 03:49:50;;;;;;;5.00;1.90;;;;;;;-0.32;71.78;92576.75;5068346;28;20024;-71
2021/04/07 03:52:15;;;;;;;5.25;1.60;;;;;;;-0.38;72.49;92572.63;5090574;28;20075;-71
2021/04/07 03:54:43;;;;;;;5.07;1.80;;;;;;;-0.47;73.02;92601.22;5072191;28;20034;-72
2021/04/07 03:57:08;;;;;;;5.82;2.17;;;;;;;-0.45;73.12;92607.75;5090622;28;20024;-71
2021/04/07 03:59:34;;;;;;;3.58;1.75;;;;;;;-0.49;72.80;92619.03;5090538;28;20020;-71
2021/04/07 04:01:59;;;;;;;12.50;2.58;;;;;;;-0.50;72.97;92620.09;5063902;28;20032;-71
2021/04/07 04:04:24;;;;;;;5.00;2.25;;;;;;;-0.54;73.14;92627.72;5090262;28;20004;-71
2021/04/07 04:06:52;;;;;;;5.75;1.95;;;;;;;-0.53;72.80;92654.66;5071134;28;20031;-71
2021/04/07 04:09:17;;;;;;;4.68;1.83;;;;;;;-0.59;71.95;92653.13;5069517;28;20133;-71
2021/04/07 04:11:43;;;;;;;4.35;1.20;;;;;;;-0.66;72.17;92663.91;5090519;28;20020;-71
2021/04/07 04:14:08;;;;;;;3.40;1.38;;;;;;;-0.73;70.99;92661.59;5066904;28;20546;-71
2021/04/07 04:16:34;;;;;;;11.55;1.35;;;;;;;-0.83;71.35;92664.28;5090464;28;20038;-71
2021/04/07 04:18:59;;;;;;;3.60;1.50;;;;;;;-0.94;72.82;92665.38;5072217;28;20487;-72
2021/04/07 04:21:24;;;;;;;2.58;1.40;;;;;;;-1.07;74.49;92677.25;5071795;28;20028;-71
2021/04/07 04:23:50;;;;;;;4.05;1.92;;;;;;;-1.09;75.21;92674.88;5105535;28;20028;-71
2021/04/07 04:26:15;;;;;;;2.28;1.60;;;;;;;-1.19;75.62;92684.63;5089998;28;20039;-71
2021/04/07 04:28:41;;;;;;;5.13;1.77;;;;;;;-1.26;76.13;92684.91;5071817;28;20032;-71
2021/04/07 04:31:06;;;;;;;3.58;1.85;;;;;;;-1.35;76.94;92691.75;5089980;28;20471;-71
2021/04/07 04:33:31;;;;;;;8.18;2.42;;;;;;;-1.41;77.17;92702.19;5071713;28;20028;-71
2021/04/07 04:35:57;;;;;;;5.55;2.53;;;;;;;-1.35;77.80;92710.03;5089923;28;20420;-71
2021/04/07 04:38:27;;;;;;;5.70;2.35;;;;;;;-1.38;78.06;92707.94;5071673;28;20036;-72
2021/04/07 04:40:53;;;;;;;3.08;2.00;;;;;;;-1.35;78.66;92712.66;5089834;28;20127;-71
2021/04/07 04:43:19;;;;;;;6.00;2.50;;;;;;;-1.42;78.72;92711.09;5089873;28;20111;-71
2021/04/07 04:45:44;;;;;;;4.53;2.42;;;;;;;-1.32;78.75;92718.13;5060125;28;20089;-70
2021/04/07 04:48:10;;;;;;;3.92;1.60;;;;;;;-1.37;78.74;92715.53;5061628;28;20023;-70
2021/04/07 04:50:35;;;;;;;6.15;2.10;;;;;;;-1.35;78.58;92723.09;5071871;28;20565;-70
2021/04/07 04:53:01;;;;;;;8.18;2.15;;;;;;;-1.39;79.11;92728.09;5089761;28;20036;-69
2021/04/07 04:55:26;;;;;;;3.17;1.73;;;;;;;-1.42;79.95;92721.56;5071474;28;20150;-70
2021/04/07 04:57:54;;;;;;;5.88;2.50;;;;;;;-1.52;80.36;92724.22;5089785;28;20059;-70
2021/04/07 05:00:19;;;;;;;6.63;2.47;;;;;;;-1.58;80.86;92734.94;5071411;28;20036;-70
2021/04/07 05:02:45;;;;;;;4.60;2.65;;;;;;;-1.58;81.39;92729.72;5071475;28;20188;-70
2021/04/07 05:05:11;;;;;;;6.38;2.95;;;;;;;-1.58;82.34;92740.94;5071292;28;20031;-69
2021/04/07 05:07:36;;;;;;;5.07;2.30;;;;;;;-1.59;82.18;92749.81;5089154;28;20048;-69
2021/04/07 05:10:02;;;;;;;4.90;2.63;;;;;;;-1.57;82.58;92760.00;5070010;28;20032;-69
2021/04/07 05:12:27;;;;;;;4.10;2.33;;;;;;;-1.57;82.78;92762.63;5057551;28;20037;-70
2021/04/07 05:14:53;;;;;;;4.57;2.60;;;;;;;-1.52;83.03;92752.19;5089190;28;20116;-70
2021/04/07 05:17:19;;;;;;;6.47;2.53;;;;;;;-1.51;82.82;92736.22;5089552;28;20032;-69
2021/04/07 05:19:44;;;;;;;8.10;2.83;;;;;;;-1.53;83.40;92727.84;5088872;28;20036;-69
2021/04/07 05:22:10;;;;;;;9.35;3.15;;;;;;;-1.43;83.49;92745.34;5104464;28;20428;-70
2021/04/07 05:24:35;;;;;;;11.85;2.90;;;;;;;-1.39;83.17;92743.00;5089208;28;20050;-69
2021/04/07 05:27:01;;;;;;;3.33;2.08;;;;;;;-1.39;82.64;92749.00;5070705;28;20181;-69
2021/04/07 05:29:26;;;;;;;10.35;4.40;;;;;;;-1.34;81.68;92735.91;5070794;28;20564;-69
2021/04/07 05:31:52;;;;;;;11.18;4.28;;;;;;;-1.34;81.80;92720.22;5070656;28;20036;-70
2021/04/07 05:34:17;;;;;;;4.68;1.63;;;;;;;-1.41;80.13;92754.47;5052635;28;20031;-69
2021/04/07 05:36:43;;;;;;;11.35;4.82;;;;;;;-1.37;80.83;92751.34;5104416;28;20024;-70
2021/04/07 05:39:08;;;;;;;4.15;2.70;;;;;;;-1.37;80.15;92764.41;5088951;28;20024;-69
2021/04/07 05:41:34;;;;;;;2.65;1.75;;;;;;;-1.48;79.85;92761.84;5066475;28;20039;-70
2021/04/07 05:43:59;;;;;;;3.28;1.75;;;;;;;-1.56;79.38;92762.38;5088749;28;20103;-68
2021/04/07 05:46:25;;;;;;;3.42;1.70;;;;;;;-1.66;79.09;92765.00;5088900;28;20023;-68
2021/04/07 05:48:50;;;;;;;3.17;2.00;;;;;;;-1.61;79.57;92772.81;5089297;28;20157;-68
2021/04/07 05:51:16;;;;;;;4.15;1.92;;;;;;;-1.60;78.95;92773.63;5088719;28;20016;-68
2021/04/07 05:53:41;;;;;;;4.20;2.10;;;;;;;-1.72;78.12;92784.34;5056805;28;20028;-68
2021/04/07 05:56:07;;;;;;;5.13;2.33;;;;;;;-1.76;79.01;92791.91;5062628;28;20110;-67
2021/04/07 05:58:32;;;;;;;3.42;2.22;;;;;;;-1.83;79.45;92781.75;5070178;28;20115;-67
2021/04/07 06:00:57;;;;;;;4.05;2.15;;;;;;;-1.87;79.46;92791.16;5093229;28;20031;-68
2021/04/07 06:03:23;;;;;;;3.58;2.15;;;;;;;-1.86;80.23;92747.53;5067914;28;20024;-68
2021/04/07 06:05:50;;;;;;;8.38;3.17;;;;;;;-1.76;80.57;92744.13;5092744;28;20453;-68
2021/04/07 06:08:17;;;;;;;13.82;4.97;;;;;;;-1.63;80.29;92757.44;5069150;28;20048;-68
2021/04/07 06:10:45;;;;;;;4.03;2.33;;;;;;;-1.65;79.02;92777.81;5063086;28;20456;-70
2021/04/07 06:13:12;;;;;;;5.90;2.70;;;;;;;-1.64;79.74;92783.81;5067483;28;20032;-68
2021/04/07 06:15:38;;;;;;;7.40;3.53;;;;;;;-1.65;79.60;92808.34;5074309;28;20403;-70
2021/04/07 06:18:07;;;;;;;6.20;3.58;;;;;;;-1.70;79.79;92796.09;5064673;28;20414;-66
2021/04/07 06:20:35;;;;;;;3.20;1.73;;;;;;;-1.72;79.66;92803.41;5074316;28;20028;-67
2021/04/07 06:23:01;;;;;;;5.75;3.78;;;;;;;-1.70;80.28;92797.94;5074301;28;20016;-73
2021/04/07 06:25:27;;;;;;;5.45;3.45;;;;;;;-1.67;79.75;92805.22;5064662;28;20498;-71
2021/04/07 06:27:55;;;;;;;7.60;2.92;;;;;;;-1.69;80.48;92812.53;5092394;28;20024;-71
2021/04/07 06:30:40;;;;;;;11.20;4.38;;;;;;;-1.64;79.96;92815.94;5068860;28;20506;-66
2021/04/07 06:33:09;;;;;;;6.60;3.22;;;;;;;-1.75;81.33;92809.16;5055943;28;20082;-67
2021/04/07 06:35:34;;;;;;;15.35;4.53;;;;;;;-1.72;81.47;92819.09;5091908;28;20042;-68
2021/04/07 06:38:00;;;;;;;7.85;3.90;;;;;;;-1.68;81.24;92821.97;5091705;28;20020;-68
2021/04/07 06:40:28;;;;;;;5.63;3.65;;;;;;;-1.69;80.97;92843.91;5091991;28;20040;-68
2021/04/07 06:42:53;;;;;;;5.53;2.92;;;;;;;-1.68;81.18;92840.25;5064106;28;20024;-68
2021/04/07 06:45:19;;;;;;;11.23;4.70;;;;;;;-1.75;80.74;92834.50;5103253;28;20448;-68
2021/04/07 06:47:45;;;;;;;11.93;4.93;;;;;;;-1.76;80.74;92835.56;5091700;28;20024;-69
2021/04/07 06:50:12;;;;;;;7.97;3.47;;;;;;;-1.77;81.20;92833.97;5056808;28;20027;-67
2021/04/07 06:52:37;;;;;;;6.78;3.63;;;;;;;-1.83;80.62;92841.81;5072037;28;20081;-67
2021/04/07 06:55:03;;;;;;;7.72;4.10;;;;;;;-1.80;81.20;92840.50;5064961;28;20020;-68
2021/04/07 06:57:29;;;;;;;8.10;3.70;;;;;;;-1.81;80.91;92875.53;5091725;28;20427;-68
2021/04/07 06:59:55;;;;;;;5.05;3.00;;;;;;;-1.86;81.24;92858.00;5067840;28;20028;-68
2021/04/07 07:02:20;;;;;;;5.80;3.50;;;;;;;-1.86;80.74;92881.50;5098614;28;20522;-68
2021/04/07 07:04:46;;;;;;;6.28;3.67;;;;;;;-1.85;81.42;92869.25;5060813;28;20082;-67
2021/04/07 07:07:11;;;;;;;7.30;4.30;;;;;;;-1.86;81.02;92884.13;5057893;28;20078;-66
2021/04/07 07:09:37;;;;;;;10.27;3.85;;;;;;;-1.85;80.39;92890.94;5055760;28;20028;-67
2021/04/07 07:12:03;;;;;;;8.00;4.28;;;;;;;-1.75;81.15;92889.34;5067950;28;20024;-68
2021/04/07 07:14:29;;;;;;;9.52;4.55;;;;;;;-1.70;81.57;92895.38;5098739;28;20058;-67
2021/04/07 07:16:56;;;;;;;8.60;4.53;;;;;;;-1.62;81.54;92881.78;5091554;28;20020;-68
2021/04/07 07:19:25;;;;;;;18.35;7.95;;;;;;;-1.58;81.96;92891.72;5091064;28;20035;-67
2021/04/07 07:22:01;;;;;;;10.15;5.35;;;;;;;-1.51;81.79;92876.56;5063072;28;20097;-68
2021/04/07 07:24:39;;;;;;;8.85;4.28;;;;;;;-1.49;80.87;92875.25;5090230;28;20054;-68
2021/04/07 07:27:09;;;;;;;18.60;6.38;;;;;;;-1.49;81.24;92888.31;5090378;28;20446;-67
2021/04/07 07:29:37;;;;;;;8.27;4.78;;;;;;;-1.48;80.50;92896.97;5070448;28;20110;-68
2021/04/07 07:32:06;;;;;;;6.22;3.50;;;;;;;-1.52;80.98;92896.69;5089809;28;20449;-68
2021/04/07 07:34:33;;;;;;;8.30;3.95;;;;;;;-1.53;80.50;92896.94;5090392;28;20032;-69
2021/04/07 07:36:59;;;;;;;10.43;4.53;;;;;;;-1.45;80.15;92902.44;5059708;28;20055;-69
2021/04/07 07:39:34;;;;;;;7.90;3.50;;;;;;;-1.41;80.64;92906.09;5056734;28;20480;-68
2021/04/07 07:42:05;;;;;;;8.18;3.15;;;;;;;-1.37;80.09;92926.50;5089911;28;20040;-70
2021/04/07 07:44:34;;;;;;;4.03;2.63;;;;;;;-1.42;79.59;92928.06;5089535;28;20032;-69
2021/04/07 07:47:06;;;;;;;5.68;3.50;;;;;;;-1.42;78.96;92932.50;5060566;28;20459;-68
2021/04/07 07:49:31;;;;;;;5.10;2.58;;;;;;;-1.52;80.10;92924.66;5057671;28;20348;-69
2021/04/07 07:51:57;;;;;;;4.65;2.53;;;;;;;-1.48;80.16;92928.31;5089486;28;20042;-71
2021/04/07 07:54:24;;;;;;;4.00;1.90;;;;;;;-1.47;79.97;92940.34;5089857;28;20104;-70
2021/04/07 07:56:51;;;;;;;4.28;2.78;;;;;;;-1.51;79.06;92947.91;5063531;28;20025;-68
2021/04/07 07:59:31;;;;;;;5.65;2.92;;;;;;;-1.45;79.61;92944.25;5070108;28;20027;-68
2021/04/07 08:01:57;;;;;;;5.00;2.63;;;;;;;-1.37;79.43;92955.25;5069882;28;20046;-68
2021/04/07 08:04:23;;;;;;;4.20;2.47;;;;;;;-1.39;78.28;92957.34;5064453;28;20020;-69
2021/04/07 08:06:49;;;;;;;4.00;2.47;;;;;;;-1.42;77.89;92959.41;5089660;28;20053;-68
2021/04/07 08:09:15;;;;;;;6.72;2.78;;;;;;;-1.41;76.66;92968.81;5071347;28;20023;-69
2021/04/07 08:11:45;;;;;;;5.38;3.05;;;;;;;-1.43;77.35;92949.22;5067389;28;20108;-69
2021/04/07 08:14:21;;;;;;;3.65;2.42;;;;;;;-1.47;77.81;92959.41;5089931;28;20131;-68
2021/04/07 08:16:47;;;;;;;3.53;2.53;;;;;;;-1.42;78.51;92932.50;5090693;28;20020;-69
2021/04/07 08:19:14;;;;;;;5.03;3.08;;;;;;;-1.39;78.12;92933.81;5057088;28;20032;-69
2021/04/07 08:21:43;;;;;;;5.70;3.20;;;;;;;-1.28;78.71;92940.63;5090540;28;20419;-68
2021/04/07 08:24:11;;;;;;;5.20;3.00;;;;;;;-1.24;77.89;92939.03;5072227;28;20021;-68
2021/04/07 08:26:39;;;;;;;6.20;3.00;;;;;;;-1.19;77.54;92949.50;5056943;28;20092;-70
2021/04/07 08:29:06;;;;;;;15.90;3.97;;;;;;;-1.08;77.54;92958.91;5059745;28;20052;-68
2021/04/07 08:31:32;;;;;;;9.68;4.10;;;;;;;-0.99;77.28;92976.69;5059219;28;20028;-69
2021/04/07 08:34:01;;;;;;;8.95;4.03;;;;;;;-0.96;76.38;92982.16;5089363;28;20076;-69
2021/04/07 08:36:28;;;;;;;6.25;3.20;;;;;;;-1.05;74.98;92973.28;5089479;28;20448;-69
2021/04/07 08:39:00;;;;;;;4.47;2.70;;;;;;;-1.15;75.21;92979.31;5065626;28;20024;-69
2021/04/07 08:41:26;;;;;;;4.65;2.67;;;;;;;-1.12;75.60;92978.78;5089265;28;20511;-69
2021/04/07 08:43:53;;;;;;;7.25;3.85;;;;;;;-1.09;75.84;92967.78;5086767;28;20059;-70
2021/04/07 08:46:23;;;;;;;7.15;3.47;;;;;;;-1.06;75.74;92967.28;5071102;28;20074;-69
2021/04/07 08:48:48;;;;;;;9.43;4.38;;;;;;;-0.90;76.20;92959.41;5062852;28;20039;-72
2021/04/07 08:51:15;;;;;;;9.85;4.07;;;;;;;-0.78;76.22;92954.69;5056563;28;20024;-71
2021/04/07 08:53:47;;;;;;;10.65;5.70;;;;;;;-0.59;76.65;92970.63;5057247;28;20509;-72
2021/04/07 08:56:22;;;;;;;9.45;4.60;;;;;;;-0.47;76.08;92986.81;5070052;28;20035;-72
2021/04/07 08:59:08;;;;;;;9.85;4.45;;;;;;;-0.65;75.69;93013.56;5068251;28;20028;-71
2021/04/07 09:01:35;;;;;;;7.35;4.38;;;;;;;-0.70;76.63;93001.25;5099441;28;20039;-72
2021/04/07 09:04:10;;;;;;;7.78;4.80;;;;;;;-0.71;77.17;93004.13;5067632;28;20123;-69
2021/04/07 09:06:40;;;;;;;9.93;5.38;;;;;;;-0.67;75.43;93013.81;5088733;28;20032;-72
2021/04/07 09:09:07;;;;;;;13.25;4.68;;;;;;;-0.70;75.26;93018.78;5086669;28;20024;-72
2021/04/07 09:11:35;;;;;;;7.85;4.78;;;;;;;-0.65;75.41;93030.03;5086626;28;20479;-72
2021/04/07 09:14:04;;;;;;;6.60;4.38;;;;;;;-0.66;74.78;93020.59;5066206;28;20024;-72
2021/04/07 09:16:36;;;;;;;10.18;4.78;;;;;;;-0.57;75.08;93025.31;5104251;28;20194;-72
2021/04/07 09:19:34;;;;;;;7.40;3.40;;;;;;;-0.49;74.22;93016.91;5056565;28;20029;-70
2021/04/07 09:22:01;;;;;;;7.50;3.90;;;;;;;-0.43;74.16;93010.63;5073109;28;20032;-70
2021/04/07 09:24:33;;;;;;;6.10;3.90;;;;;;;-0.43;74.09;93008.00;5067756;28;20119;-71
2021/04/07 09:26:59;;;;;;;19.40;4.75;;;;;;;-0.42;75.35;93009.59;5060698;28;20021;-70
2021/04/07 09:29:25;;;;;;;5.35;3.63;;;;;;;-0.39;74.68;93016.13;5064988;28;20040;-70
2021/04/07 09:31:52;;;;;;;9.88;3.78;;;;;;;-0.41;75.22;93027.66;5088626;28;20023;-70
2021/04/07 09:34:17;;;;;;;8.07;4.78;;;;;;;-0.48;75.20;93036.81;5096463;28;20056;-70
2021/04/07 09:36:45;;;;;;;6.60;3.47;;;;;;;-0.49;75.89;93049.13;5057354;28;20048;-71
2021/04/07 09:39:23;;;;;;;9.50;4.07;;;;;;;-0.71;75.86;93046.78;5093480;28;20093;-70
2021/04/07 09:41:49;;;;;;;5.28;3.20;;;;;;;-0.90;76.19;93043.91;5093092;28;20124;-69
2021/04/07 09:44:16;;;;;;;8.13;4.22;;;;;;;-1.01;76.58;93045.72;5093055;28;20058;-71
2021/04/07 09:46:55;;;;;;;7.43;4.32;;;;;;;-0.95;77.27;93051.75;5060029;28;20065;-70
2021/04/07 09:49:29;;;;;;;6.40;3.80;;;;;;;-0.96;76.75;93047.56;5090325;28;20173;-70
2021/04/07 09:51:56;;;;;;;5.38;3.70;;;;;;;-0.94;76.24;93068.22;5072571;28;20117;-70
2021/04/07 09:54:23;;;;;;;7.18;3.85;;;;;;;-0.93;75.57;93064.59;5091192;28;20028;-70
2021/04/07 09:56:53;;;;;;;4.75;3.08;;;;;;;-1.01;74.33;93079.75;5090758;28;20028;-71
2021/04/07 09:59:38;;;;;;;7.00;3.08;;;;;;;-0.92;73.74;93074.00;5090883;28;20028;-70
2021/04/07 10:02:06;;;;;;;5.05;3.13;;;;;;;-0.91;73.14;93078.19;5092075;28;20413;-70
2021/04/07 10:04:34;;;;;;;6.00;2.50;;;;;;;-1.00;72.91;93064.81;5075203;28;20039;-71
2021/04/07 10:07:08;;;;;;;5.55;2.95;;;;;;;-0.99;74.26;93070.88;5093066;28;20544;-70
2021/04/07 10:09:34;;;;;;;9.48;3.97;;;;;;;-0.91;75.53;93078.19;5074604;28;20084;-70
2021/04/07 10:11:59;;;;;;;5.43;3.45;;;;;;;-0.92;76.07;93072.16;5057909;28;20020;-71
2021/04/07 10:14:25;;;;;;;5.45;3.58;;;;;;;-0.90;76.01;93069.28;5068989;28;20020;-71
2021/04/07 10:16:50;;;;;;;5.80;3.50;;;;;;;-0.83;76.11;93082.91;5092968;28;20024;-71
2021/04/07 10:19:16;;;;;;;7.30;3.00;;;;;;;-0.83;75.30;93072.44;5092508;28;20081;-71
2021/04/07 10:21:43;;;;;;;5.72;3.65;;;;;;;-0.85;76.66;93077.16;5092404;28;20398;-72
2021/04/07 10:24:14;;;;;;;9.07;4.72;;;;;;;-0.74;77.27;93083.16;5061162;28;20020;-72
2021/04/07 10:26:43;;;;;;;10.60;5.72;;;;;;;-0.67;78.59;93088.91;5065444;28;20028;-72
2021/04/07 10:29:20;;;;;;;5.43;3.83;;;;;;;-0.68;77.96;93092.59;5067218;28;20031;-71
2021/04/07 10:31:58;;;;;;;7.53;4.63;;;;;;;-0.70;78.45;93092.84;5072258;28;20103;-72
2021/04/07 10:34:34;;;;;;;6.75;4.53;;;;;;;-0.64;78.28;93094.41;5092342;28;20044;-71
2021/04/07 10:37:01;;;;;;;11.45;5.20;;;;;;;-0.46;78.33;93102.78;5091958;28;20027;-72
2021/04/07 10:39:35;;;;;;;8.25;5.00;;;;;;;-0.38;77.45;93099.66;5092097;28;20028;-72
2021/04/07 10:42:02;;;;;;;6.75;4.38;;;;;;;-0.17;73.84;93097.00;5091664;28;20487;-72
2021/04/07 10:44:29;;;;;;;5.50;3.15;;;;;;;-0.01;70.79;93093.31;5055693;28;20515;-72
2021/04/07 10:46:55;;;;;;;4.47;3.00;;;;;;;0.10;69.86;93086.19;5056331;28;20139;-72
2021/04/07 10:49:22;;;;;;;8.23;3.15;;;;;;;0.32;68.43;93083.25;5073716;28;20023;-72
2021/04/07 10:52:05;;;;;;;4.15;2.70;;;;;;;0.54;68.28;93080.28;5091372;28;20015;-73
2021/04/07 10:54:31;;;;;;;3.83;2.60;;;;;;;0.73;66.47;93104.03;5073560;28;20051;-71
2021/04/07 10:57:07;;;;;;;4.80;2.70;;;;;;;0.80;65.11;93104.53;5059789;28;20032;-72
2021/04/07 10:59:34;;;;;;;7.70;2.95;;;;;;;0.96;65.00;93115.75;5073645;28;20032;-72
2021/04/07 11:02:11;;;;;;;3.50;2.20;;;;;;;1.12;63.07;93114.59;5072091;28;20069;-73
2021/04/07 11:04:37;;;;;;;3.90;2.20;;;;;;;1.07;63.66;93103.34;5073415;28;20115;-72
2021/04/07 11:07:03;;;;;;;3.90;2.33;;;;;;;1.23;63.54;93101.41;5073256;28;20024;-71
2021/04/07 11:09:32;;;;;;;4.68;2.00;;;;;;;1.39;62.07;93100.25;5061511;28;20591;-72
2021/04/07 11:11:59;;;;;;;4.20;2.70;;;;;;;1.55;63.29;93099.06;5064701;28;20442;-71
2021/04/07 11:14:25;;;;;;;3.35;2.15;;;;;;;1.65;61.32;93108.72;5062449;28;20107;-71
2021/04/07 11:17:05;;;;;;;3.38;2.30;;;;;;;1.64;60.67;93112.38;5066133;28;20042;-71
2021/04/07 11:19:38;;;;;;;2.85;1.95;;;;;;;1.64;60.55;93116.84;5071785;28;20098;-71
2021/04/07 11:22:05;;;;;;;3.67;2.20;;;;;;;1.63;61.39;93110.84;5071702;28;20016;-70
2021/04/07 11:24:31;;;;;;;3.03;2.13;;;;;;;1.61;61.71;93118.19;5064918;28;20042;-70
2021/04/07 11:26:57;;;;;;;4.30;2.67;;;;;;;1.54;63.25;93102.72;5066072;28;20115;-71
2021/04/07 11:29:22;;;;;;;3.88;2.40;;;;;;;1.55;62.33;93104.31;5056264;28;20028;-71
2021/04/07 11:31:54;;;;;;;5.72;2.30;;;;;;;1.54;63.40;93101.97;5064736;28;20024;-68
2021/04/07 11:34:25;;;;;;;5.35;2.45;;;;;;;1.59;63.11;93109.81;5089912;28;20081;-70